Accueil
METAR-TAF:

METAR-TAF

Aéroports :

Francis S. Gabreski Airport

Westhampton Beach, New York, États-Unis

latitude: 40-51-03N, longitude: 072-37-14W, altitude: 20 m

Observation

Le bulletin a été fait il y a 16 minutes, à 00:53 UTC
Vent 3 kt de sud/sud-est
Température 20°C
Humidité 83%
Pression 1025 hPa
Visibilité: 16.1 km
Nuages fragmentés à une hauteur de 1700 ft

METAR: KFOK 160053Z 15003KT 10SM BKN017 20/17 A3026 RMK AO2 SLP245 T02000167

Heure: 21:09 (01:09 UTC)


TAF: absent

Observations et prévisions météorologiques de plus de 4000 aéroports (messages METAR et TAF).

Les stations disponibles sont représentées par des disques jaunes et rouges sur la carte.

Passer la souris dessus pour voir le nom de la station.

Cliquer dessus pour voir les observations et prévisions météorologiques.

Pour changer de carte: cliquez sur les boutons verts avec une croix noire pour zoomer, sur le bouton vert avec un tiret pour effectuer un zoom arrière, ou sur les flèches vertes pour les cartes adjacentes.


METAR-TAF: